createdAt,value
2023-02-22T00:02:11.166Z,100.00
2023-02-22T00:04:42.412Z,100.00
2023-02-22T00:07:10.355Z,100.00
2023-02-22T00:09:38.175Z,100.00
2023-02-22T00:12:06.667Z,100.00
2023-02-22T00:14:34.638Z,100.00
2023-02-22T00:17:02.566Z,100.00
2023-02-22T00:19:31.229Z,100.00
2023-02-22T00:22:00.165Z,100.00
2023-02-22T00:24:29.552Z,100.00
2023-02-22T00:26:57.638Z,100.00
2023-02-22T00:29:25.880Z,100.00
2023-02-22T00:31:54.398Z,100.00
2023-02-22T00:34:24.249Z,100.00
2023-02-22T00:36:52.202Z,100.00
2023-02-22T00:39:20.235Z,100.00
2023-02-22T00:41:48.277Z,100.00
2023-02-22T00:44:16.376Z,100.00
2023-02-22T00:46:44.290Z,100.00
2023-02-22T00:49:12.157Z,100.00
2023-02-22T00:51:40.126Z,100.00
2023-02-22T00:54:08.572Z,100.00
2023-02-22T00:56:38.112Z,100.00
2023-02-22T00:59:06.384Z,100.00
2023-02-22T01:01:34.905Z,100.00
2023-02-22T01:04:02.818Z,100.00
2023-02-22T01:06:31.222Z,100.00
2023-02-22T01:08:59.967Z,100.00
2023-02-22T01:11:28.557Z,100.00
2023-02-22T01:13:58.195Z,100.00
2023-02-22T01:16:27.742Z,100.00
2023-02-22T01:18:56.338Z,100.00
2023-02-22T01:21:24.106Z,100.00
2023-02-22T01:23:52.039Z,100.00
2023-02-22T01:26:20.048Z,100.00
2023-02-22T01:28:47.906Z,100.00
2023-02-22T01:31:16.255Z,100.00
2023-02-22T01:33:44.703Z,100.00
2023-02-22T01:36:24.979Z,100.00
2023-02-22T01:38:53.324Z,100.00
2023-02-22T01:41:22.723Z,100.00
2023-02-22T01:43:50.708Z,100.00
2023-02-22T01:46:27.155Z,100.00
2023-02-22T01:49:00.751Z,100.00
2023-02-22T01:51:37.962Z,100.00
2023-02-22T01:54:14.042Z,100.00
2023-02-22T01:56:52.738Z,100.00
2023-02-22T01:59:22.540Z,100.00
2023-02-22T02:01:50.504Z,100.00
2023-02-22T02:04:25.428Z,100.00
2023-02-22T02:07:01.259Z,100.00
2023-02-22T02:09:39.872Z,100.00
2023-02-22T02:12:11.304Z,100.00
2023-02-22T02:14:41.941Z,100.00
2023-02-22T02:17:13.865Z,100.00
2023-02-22T02:19:48.951Z,100.00
2023-02-22T02:22:31.385Z,100.00
2023-02-22T02:25:18.097Z,100.00
2023-02-22T02:28:24.049Z,100.00
2023-02-22T02:31:10.410Z,100.00
2023-02-22T02:33:55.421Z,100.00
2023-02-22T02:36:31.036Z,100.00
2023-02-22T02:39:04.058Z,100.00
2023-02-22T02:41:39.864Z,100.00
2023-02-22T02:44:31.958Z,100.00
2023-02-22T02:47:09.429Z,100.00
2023-02-22T02:49:49.024Z,100.00
2023-02-22T02:52:20.909Z,100.00
2023-02-22T02:54:49.456Z,100.00
2023-02-22T02:57:17.544Z,100.00
2023-02-22T02:59:46.539Z,100.00
2023-02-22T03:02:39.420Z,100.00
2023-02-22T03:05:34.035Z,100.00
2023-02-22T03:08:46.687Z,100.00
2023-02-22T03:11:17.007Z,100.00
2023-02-22T03:13:55.724Z,100.00
2023-02-22T03:16:40.589Z,100.00
2023-02-22T03:19:17.598Z,100.00
2023-02-22T03:21:54.528Z,100.00
2023-02-22T03:24:31.202Z,100.00
2023-02-22T03:27:24.534Z,100.00
2023-02-22T03:29:57.580Z,100.00
2023-02-22T03:32:29.934Z,100.00
2023-02-22T03:35:06.947Z,100.00
2023-02-22T03:37:43.077Z,100.00
2023-02-22T03:40:18.643Z,100.00
2023-02-22T03:42:51.663Z,100.00
2023-02-22T03:45:24.388Z,100.00
2023-02-22T03:48:02.153Z,100.00
2023-02-22T03:50:36.114Z,100.00
2023-02-22T03:53:05.256Z,100.00
2023-02-22T03:55:34.865Z,100.00
2023-02-22T03:58:10.050Z,100.00
2023-02-22T04:05:08.167Z,100.00
2023-02-22T04:07:36.250Z,100.00
2023-02-22T04:10:08.601Z,100.00
2023-02-22T04:12:39.523Z,100.00
2023-02-22T04:15:11.543Z,100.00
2023-02-22T04:17:39.412Z,100.00
2023-02-22T04:20:10.357Z,100.00
2023-02-22T04:22:49.487Z,100.00
2023-02-22T04:25:18.834Z,100.00
2023-02-22T04:27:47.993Z,100.00
2023-02-22T04:34:39.398Z,100.00
2023-02-22T04:37:07.790Z,100.00
2023-02-22T04:39:36.505Z,100.00
2023-02-22T04:42:05.727Z,100.00
2023-02-22T04:44:34.550Z,100.00
2023-02-22T04:47:03.084Z,100.00
2023-02-22T04:49:30.886Z,100.00
2023-02-22T04:51:59.765Z,100.00
2023-02-22T04:54:34.965Z,100.00
2023-02-22T04:57:03.527Z,100.00
2023-02-22T04:59:32.946Z,100.00
2023-02-22T05:02:02.977Z,100.00
2023-02-22T05:04:31.340Z,100.00
2023-02-22T05:06:59.226Z,100.00
2023-02-22T05:09:27.073Z,100.00
2023-02-22T05:11:55.032Z,100.00
2023-02-22T05:14:26.595Z,100.00
2023-02-22T05:16:55.997Z,100.00
2023-02-22T05:19:24.399Z,100.00
2023-02-22T05:21:52.291Z,100.00
2023-02-22T05:24:20.241Z,100.00
2023-02-22T05:26:48.415Z,100.00
2023-02-22T05:29:16.278Z,100.00
2023-02-22T05:31:44.100Z,100.00
2023-02-22T05:34:12.567Z,100.00
2023-02-22T05:36:40.744Z,100.00
2023-02-22T05:39:08.645Z,100.00
2023-02-22T05:41:36.475Z,100.00
2023-02-22T05:44:06.128Z,100.00
2023-02-22T05:46:34.152Z,100.00
2023-02-22T05:49:01.991Z,100.00
2023-02-22T05:51:29.833Z,100.00
2023-02-22T05:53:57.867Z,100.00
2023-02-22T05:56:28.114Z,100.00
2023-02-22T05:58:57.185Z,100.00
2023-02-22T06:01:26.266Z,100.00
2023-02-22T06:03:54.169Z,100.00
2023-02-22T06:06:22.554Z,100.00
2023-02-22T06:08:50.644Z,100.00
2023-02-22T06:11:19.927Z,100.00
2023-02-22T06:13:52.576Z,100.00
2023-02-22T06:16:21.702Z,100.00
2023-02-22T06:18:50.231Z,100.00
2023-02-22T06:21:18.505Z,100.00
2023-02-22T06:23:46.455Z,100.00
2023-02-22T06:26:17.693Z,100.00
2023-02-22T06:28:46.643Z,100.00
2023-02-22T06:31:15.340Z,100.00
2023-02-22T06:33:43.445Z,100.00
2023-02-22T06:36:11.538Z,100.00
2023-02-22T06:38:39.323Z,100.00
2023-02-22T06:41:08.823Z,100.00
2023-02-22T06:43:36.629Z,100.00
2023-02-22T06:46:04.931Z,100.00
2023-02-22T06:48:33.135Z,100.00
2023-02-22T06:51:01.018Z,100.00
2023-02-22T06:53:28.953Z,100.00
2023-02-22T06:55:56.818Z,100.00
2023-02-22T06:58:24.703Z,100.00
2023-02-22T07:00:52.878Z,100.00
2023-02-22T07:03:21.207Z,100.00
2023-02-22T07:05:49.206Z,100.00
2023-02-22T07:08:17.257Z,100.00
2023-02-22T07:10:45.058Z,100.00
2023-02-22T07:13:13.060Z,100.00
2023-02-22T07:15:41.937Z,100.00
2023-02-22T07:18:09.798Z,100.00
2023-02-22T07:20:38.275Z,100.00
2023-02-22T07:23:06.387Z,100.00
2023-02-22T07:25:35.701Z,100.00
2023-02-22T07:28:03.952Z,100.00
2023-02-22T07:30:34.251Z,100.00
2023-02-22T07:33:05.129Z,100.00
2023-02-22T07:35:49.378Z,100.00
2023-02-22T07:38:19.024Z,100.00
2023-02-22T07:40:47.243Z,100.00
2023-02-22T07:43:16.935Z,100.00
2023-02-22T07:45:46.304Z,100.00
2023-02-22T07:48:17.582Z,100.00
2023-02-22T07:50:46.329Z,100.00
2023-02-22T07:53:20.625Z,100.00
2023-02-22T07:55:51.339Z,100.00
2023-02-22T07:58:22.445Z,100.00
2023-02-22T08:00:51.740Z,100.00
2023-02-22T08:03:22.646Z,100.00
2023-02-22T08:05:55.898Z,100.00
2023-02-22T08:08:24.407Z,100.00
2023-02-22T08:10:53.438Z,100.00
2023-02-22T08:13:23.096Z,100.00
2023-02-22T08:15:53.775Z,100.00
2023-02-22T08:18:25.319Z,100.00
2023-02-22T08:20:54.019Z,100.00
2023-02-22T08:23:25.255Z,100.00
2023-02-22T08:25:53.704Z,100.00
2023-02-22T08:28:23.854Z,100.00
2023-02-22T08:30:52.325Z,100.00
2023-02-22T08:33:22.019Z,100.00
2023-02-22T08:35:50.260Z,100.00
2023-02-22T08:38:24.364Z,100.00
2023-02-22T08:40:52.918Z,100.00
2023-02-22T08:43:22.134Z,100.00
2023-02-22T08:45:51.677Z,100.00
2023-02-22T08:48:20.669Z,100.00
2023-02-22T08:50:48.589Z,100.00
2023-02-22T08:53:17.007Z,100.00
2023-02-22T08:55:45.462Z,100.00
2023-02-22T08:58:14.632Z,100.00
2023-02-22T09:00:44.626Z,100.00
2023-02-22T09:03:14.584Z,100.00
2023-02-22T09:05:43.541Z,100.00
2023-02-22T09:08:11.749Z,100.00
2023-02-22T09:10:40.627Z,100.00
2023-02-22T09:13:08.821Z,100.00
2023-02-22T09:15:37.729Z,100.00
2023-02-22T09:18:09.162Z,100.00
2023-02-22T09:20:37.743Z,100.00
2023-02-22T09:23:07.137Z,100.00
2023-02-22T09:25:35.804Z,100.00
2023-02-22T09:28:03.826Z,100.00
2023-02-22T09:30:34.463Z,100.00
2023-02-22T09:33:05.912Z,100.00
2023-02-22T09:35:36.278Z,100.00
2023-02-22T09:38:08.897Z,100.00
2023-02-22T09:40:44.924Z,100.00
2023-02-22T09:43:57.758Z,100.00
2023-02-22T09:46:25.621Z,100.00
2023-02-22T09:48:58.002Z,100.00
2023-02-22T09:51:37.493Z,100.00
2023-02-22T09:54:14.792Z,100.00
2023-02-22T09:56:47.117Z,100.00
2023-02-22T09:59:23.106Z,99.88
2023-02-22T10:02:07.062Z,100.00
2023-02-22T10:04:45.715Z,100.00
2023-02-22T10:07:37.492Z,100.00
2023-02-22T10:10:06.929Z,100.00
2023-02-22T10:12:47.351Z,100.00
2023-02-22T10:15:30.396Z,100.00
2023-02-22T10:18:06.531Z,100.00
2023-02-22T10:21:11.166Z,100.00
2023-02-22T10:24:04.510Z,100.00
2023-02-22T10:26:37.696Z,100.00
2023-02-22T10:29:30.354Z,100.00
2023-02-22T10:32:02.546Z,100.00
2023-02-22T10:34:51.638Z,100.00
2023-02-22T10:37:31.530Z,100.00
2023-02-22T10:40:13.426Z,100.00
2023-02-22T10:42:41.315Z,100.00
2023-02-22T10:45:24.478Z,100.00
2023-02-22T10:47:56.385Z,100.00
2023-02-22T10:50:26.711Z,100.00
2023-02-22T10:52:55.197Z,100.00
2023-02-22T10:55:23.234Z,100.00
2023-02-22T10:57:59.340Z,100.00
2023-02-22T11:04:56.652Z,100.00
2023-02-22T11:07:35.792Z,100.00
2023-02-22T11:10:09.597Z,100.00
2023-02-22T11:12:48.586Z,100.00
2023-02-22T11:15:16.392Z,99.89
2023-02-22T11:17:46.808Z,99.88
2023-02-22T11:20:27.177Z,98.02
2023-02-22T11:22:58.612Z,97.89
2023-02-22T11:25:35.969Z,97.33
2023-02-22T11:28:30.918Z,96.76
2023-02-22T11:31:11.688Z,99.05
2023-02-22T11:33:40.050Z,99.11
2023-02-22T11:36:10.371Z,99.83
2023-02-22T11:38:39.905Z,99.87
2023-02-22T11:41:17.744Z,99.93
2023-02-22T11:43:48.930Z,98.86
2023-02-22T11:46:23.499Z,98.95
2023-02-22T11:49:04.730Z,98.62
2023-02-22T11:51:39.431Z,96.62
2023-02-22T11:54:13.903Z,96.26
2023-02-22T11:56:48.218Z,95.06
2023-02-22T11:59:25.406Z,95.65
2023-02-22T12:02:05.049Z,97.06
2023-02-22T12:04:33.385Z,95.80
2023-02-22T12:07:04.136Z,95.56
2023-02-22T12:09:42.099Z,96.23
2023-02-22T12:12:21.962Z,96.27
2023-02-22T12:15:03.630Z,96.23
2023-02-22T12:17:39.014Z,94.50
2023-02-22T12:20:21.756Z,94.52
2023-02-22T12:23:06.844Z,93.82
2023-02-22T12:25:38.881Z,94.53
2023-02-22T12:28:25.967Z,94.06
2023-02-22T12:31:25.327Z,94.49
2023-02-22T12:34:03.534Z,92.94
2023-02-22T12:36:40.190Z,93.89
2023-02-22T12:39:52.838Z,94.11
2023-02-22T12:42:44.979Z,94.20
2023-02-22T12:45:36.544Z,94.11
2023-02-22T12:48:22.166Z,92.58
2023-02-22T12:50:59.133Z,91.46
2023-02-22T12:53:38.334Z,90.80
2023-02-22T12:56:24.182Z,92.03
2023-02-22T12:59:10.368Z,91.58
2023-02-22T13:01:43.002Z,91.64
2023-02-22T13:04:20.679Z,90.68
2023-02-22T13:07:13.918Z,91.15
2023-02-22T13:09:49.408Z,90.41
2023-02-22T13:12:33.190Z,89.77
2023-02-22T13:15:17.067Z,90.20
2023-02-22T13:18:03.490Z,89.31
2023-02-22T13:20:52.870Z,88.88
2023-02-22T13:23:44.373Z,88.49
2023-02-22T13:26:34.866Z,89.43
2023-02-22T13:29:10.843Z,87.95
2023-02-22T13:31:44.727Z,87.84
2023-02-22T13:34:40.139Z,88.12
2023-02-22T13:37:07.915Z,87.83
2023-02-22T13:39:54.602Z,87.65
2023-02-22T13:42:37.543Z,86.79
2023-02-22T13:45:30.257Z,86.54
2023-02-22T13:48:21.789Z,86.15
2023-02-22T13:51:11.007Z,86.22
2023-02-22T13:53:47.204Z,87.18
2023-02-22T13:56:19.529Z,86.60
2023-02-22T13:59:02.743Z,86.32
2023-02-22T14:01:38.849Z,87.44
2023-02-22T14:04:28.873Z,87.06
2023-02-22T14:07:00.886Z,85.93
2023-02-22T14:09:45.439Z,84.07
2023-02-22T14:12:34.742Z,82.63
2023-02-22T14:15:28.349Z,82.54
2023-02-22T14:17:57.159Z,84.04
2023-02-22T14:20:36.713Z,83.95
2023-02-22T14:23:23.402Z,82.70
2023-02-22T14:25:52.377Z,82.14
2023-02-22T14:28:38.755Z,82.41
2023-02-22T14:31:08.325Z,82.69
2023-02-22T14:33:53.951Z,81.90
2023-02-22T14:36:26.251Z,82.43
2023-02-22T14:38:58.158Z,82.95
2023-02-22T14:41:29.962Z,82.88
2023-02-22T14:43:59.520Z,82.46
2023-02-22T14:46:31.825Z,82.59
2023-02-22T14:49:05.529Z,82.24
2023-02-22T14:51:44.321Z,82.30
2023-02-22T14:54:26.206Z,82.44
2023-02-22T14:56:59.932Z,82.05
2023-02-22T14:59:30.816Z,82.89
2023-02-22T15:02:11.719Z,82.71
2023-02-22T15:04:44.435Z,82.81
2023-02-22T15:07:27.496Z,82.24
2023-02-22T15:10:18.669Z,81.44
2023-02-22T15:13:09.329Z,81.74
2023-02-22T15:15:47.616Z,81.72
2023-02-22T15:18:42.065Z,82.38
2023-02-22T15:21:17.176Z,82.39
2023-02-22T15:23:59.409Z,81.26
2023-02-22T15:26:49.154Z,81.46
2023-02-22T15:29:32.731Z,81.96
2023-02-22T15:32:02.110Z,82.42
2023-02-22T15:34:32.324Z,81.80
2023-02-22T15:37:25.260Z,81.74
2023-02-22T15:39:59.472Z,81.39
2023-02-22T15:42:30.455Z,81.62
2023-02-22T15:44:58.538Z,81.97
2023-02-22T15:47:29.450Z,82.31
2023-02-22T15:50:42.803Z,82.60
2023-02-22T15:53:25.962Z,82.76
2023-02-22T15:56:01.044Z,82.61
2023-02-22T15:58:30.122Z,83.14
2023-02-22T16:01:04.586Z,82.76
2023-02-22T16:03:45.036Z,82.30
2023-02-22T16:06:36.530Z,81.90
2023-02-22T16:09:08.806Z,81.79
2023-02-22T16:11:43.213Z,81.47
2023-02-22T16:14:31.238Z,81.87
2023-02-22T16:17:35.447Z,81.91
2023-02-22T16:20:12.730Z,80.61
2023-02-22T16:22:46.526Z,80.76
2023-02-22T16:25:21.855Z,80.47
2023-02-22T16:28:00.012Z,80.85
2023-02-22T16:30:32.545Z,80.75
2023-02-22T16:33:05.634Z,80.58
2023-02-22T16:35:35.550Z,80.62
2023-02-22T16:38:06.011Z,80.15
2023-02-22T16:40:36.122Z,79.84
2023-02-22T16:43:11.163Z,80.14
2023-02-22T16:45:41.990Z,80.45
2023-02-22T16:48:18.708Z,80.91
2023-02-22T16:50:50.245Z,80.74
2023-02-22T16:53:21.948Z,80.78
2023-02-22T16:55:53.833Z,81.01
2023-02-22T16:58:21.829Z,80.65
2023-02-22T17:00:49.770Z,81.19
2023-02-22T17:03:21.084Z,81.40
2023-02-22T17:05:49.002Z,81.39
2023-02-22T17:08:17.065Z,81.20
2023-02-22T17:10:46.457Z,80.95
2023-02-22T17:13:22.980Z,81.36
2023-02-22T17:15:53.990Z,81.11
2023-02-22T17:18:26.041Z,80.89
2023-02-22T17:20:55.122Z,80.65
2023-02-22T17:23:24.053Z,80.11
2023-02-22T17:26:03.416Z,80.17
2023-02-22T17:28:32.000Z,80.19
2023-02-22T17:31:01.807Z,80.52
2023-02-22T17:33:33.344Z,80.17
2023-02-22T17:36:03.726Z,80.21
2023-02-22T17:38:32.282Z,79.82
2023-02-22T17:41:01.537Z,79.93
2023-02-22T17:43:29.842Z,80.06
2023-02-22T17:45:57.801Z,79.94
2023-02-22T17:48:26.698Z,79.35
2023-02-22T17:50:54.833Z,79.45
2023-02-22T17:53:24.962Z,78.87
2023-02-22T17:55:53.291Z,79.03
2023-02-22T17:58:22.353Z,78.70
2023-02-22T18:00:50.614Z,78.65
2023-02-22T18:03:25.864Z,78.76
2023-02-22T18:05:57.662Z,78.95
2023-02-22T18:08:55.779Z,78.66
2023-02-22T18:11:26.610Z,78.74
2023-02-22T18:13:57.314Z,78.35
2023-02-22T18:16:26.567Z,78.56
2023-02-22T18:18:55.777Z,78.80
2023-02-22T18:21:29.677Z,79.05
2023-02-22T18:23:58.133Z,78.81
2023-02-22T18:26:26.364Z,78.52
2023-02-22T18:28:54.559Z,78.61
2023-02-22T18:31:23.594Z,77.55
2023-02-22T18:33:52.828Z,75.72
2023-02-22T18:36:23.343Z,75.90
2023-02-22T18:38:54.406Z,75.54
2023-02-22T18:41:26.599Z,75.74
2023-02-22T18:44:00.443Z,76.24
2023-02-22T18:46:30.137Z,76.33
2023-02-22T18:48:59.018Z,76.55
2023-02-22T18:51:27.594Z,76.75
2023-02-22T18:54:00.261Z,76.91
2023-02-22T18:56:30.245Z,77.04
2023-02-22T18:59:01.150Z,76.98
2023-02-22T19:04:36.214Z,77.25
2023-02-22T19:07:04.072Z,76.68
2023-02-22T19:09:32.321Z,76.57
2023-02-22T19:12:00.190Z,76.77
2023-02-22T19:14:28.180Z,77.09
2023-02-22T19:16:59.132Z,77.20
2023-02-22T19:19:27.353Z,77.31
2023-02-22T19:21:56.381Z,77.36
2023-02-22T19:24:24.355Z,77.41
2023-02-22T19:26:53.812Z,77.66
2023-02-22T19:29:23.726Z,77.76
2023-02-22T19:31:52.305Z,77.79
2023-02-22T19:34:22.076Z,77.90
2023-02-22T19:36:50.489Z,78.06
2023-02-22T19:39:20.447Z,78.05
2023-02-22T19:41:48.481Z,77.91
2023-02-22T19:44:16.417Z,78.19
2023-02-22T19:46:46.203Z,78.27
2023-02-22T19:49:14.599Z,78.15
2023-02-22T19:51:42.595Z,78.40
2023-02-22T19:54:17.340Z,78.48
2023-02-22T19:56:45.578Z,78.54
2023-02-22T19:59:13.448Z,78.65
2023-02-22T20:01:45.800Z,78.47
2023-02-22T20:04:21.397Z,78.62
2023-02-22T20:06:53.980Z,78.58
2023-02-22T20:09:29.991Z,78.73
2023-02-22T20:11:57.978Z,78.88
2023-02-22T20:14:28.528Z,78.39
2023-02-22T20:16:58.679Z,77.63
2023-02-22T20:19:27.797Z,77.54
2023-02-22T20:21:56.220Z,78.14
2023-02-22T20:24:25.128Z,78.05
2023-02-22T20:26:55.882Z,78.27
2023-02-22T20:29:29.640Z,78.40
2023-02-22T20:32:00.369Z,78.29
2023-02-22T20:34:33.305Z,78.66
2023-02-22T20:37:01.479Z,78.64
2023-02-22T20:39:29.422Z,78.72
2023-02-22T20:42:00.419Z,78.75
2023-02-22T20:44:28.528Z,78.69
2023-02-22T20:46:56.523Z,78.49
2023-02-22T20:49:25.828Z,78.07
2023-02-22T20:51:53.753Z,78.15
2023-02-22T20:54:21.557Z,77.66
2023-02-22T20:56:52.632Z,78.01
2023-02-22T20:59:21.115Z,78.19
2023-02-22T21:01:50.034Z,77.82
2023-02-22T21:04:20.352Z,77.71
2023-02-22T21:06:48.890Z,77.67
2023-02-22T21:09:19.462Z,77.82
2023-02-22T21:11:47.828Z,77.95
2023-02-22T21:14:18.909Z,77.71
2023-02-22T21:16:49.325Z,78.10
2023-02-22T21:19:27.369Z,77.82
2023-02-22T21:21:57.949Z,77.92
2023-02-22T21:24:27.925Z,77.57
2023-02-22T21:26:58.579Z,77.05
2023-02-22T21:29:28.259Z,77.06
2023-02-22T21:31:56.438Z,77.19
2023-02-22T21:34:25.960Z,77.03
2023-02-22T21:36:53.868Z,77.08
2023-02-22T21:39:22.632Z,77.36
2023-02-22T21:41:52.038Z,77.27
2023-02-22T21:44:21.038Z,77.40
2023-02-22T21:46:49.809Z,77.44
2023-02-22T21:49:22.460Z,77.36
2023-02-22T21:51:52.005Z,77.38
2023-02-22T21:54:20.294Z,77.33
2023-02-22T21:56:48.428Z,77.15
2023-02-22T21:59:20.151Z,76.95
2023-02-22T22:01:55.824Z,77.25
2023-02-22T22:04:29.136Z,76.89
2023-02-22T22:06:59.011Z,76.59
2023-02-22T22:09:29.270Z,76.38
2023-02-22T22:12:06.033Z,76.33
2023-02-22T22:14:35.042Z,76.38
2023-02-22T22:17:05.693Z,75.94
2023-02-22T22:19:39.480Z,75.99
2023-02-22T22:22:08.183Z,75.95
2023-02-22T22:24:36.705Z,75.93
2023-02-22T22:27:06.534Z,75.80
2023-02-22T22:29:34.785Z,75.59
2023-02-22T22:32:03.317Z,75.56
2023-02-22T22:34:34.373Z,75.54
2023-02-22T22:37:03.078Z,75.80
2023-02-22T22:39:31.161Z,75.52
2023-02-22T22:41:59.204Z,74.89
2023-02-22T22:44:32.658Z,75.09
2023-02-22T22:47:00.803Z,74.83
2023-02-22T22:49:31.300Z,74.71
2023-02-22T22:51:59.252Z,74.60
2023-02-22T22:54:27.128Z,74.68
2023-02-22T22:56:54.900Z,74.56
2023-02-22T22:59:22.831Z,74.50
2023-02-22T23:01:52.324Z,74.50
2023-02-22T23:04:21.625Z,74.65
2023-02-22T23:06:52.056Z,74.85
2023-02-22T23:09:26.130Z,75.19
2023-02-22T23:12:08.948Z,74.80
2023-02-22T23:14:43.969Z,74.90
2023-02-22T23:17:15.845Z,75.12
2023-02-22T23:19:45.147Z,74.91
2023-02-22T23:22:14.405Z,74.84
2023-02-22T23:24:44.461Z,74.84
2023-02-22T23:27:12.804Z,74.82
2023-02-22T23:29:42.523Z,74.79
2023-02-22T23:32:11.098Z,74.89
2023-02-22T23:34:41.676Z,74.38
2023-02-22T23:37:10.660Z,74.51
2023-02-22T23:39:39.024Z,74.85
2023-02-22T23:42:10.536Z,74.84
2023-02-22T23:44:40.189Z,74.98
2023-02-22T23:47:09.780Z,75.23
2023-02-22T23:49:38.547Z,74.88
2023-02-22T23:52:08.615Z,75.16
2023-02-22T23:54:40.468Z,75.14
2023-02-22T23:57:08.894Z,75.45
2023-02-22T23:59:40.621Z,75.49
